sensor_id;sensor_type;location;lat;lon;timestamp;P1;durP1;ratioP1;P2;durP2;ratioP2
52494;SDS011;38405;53.212;5.660;2023-02-28T00:01:06;6.57;;;2.40;;
52494;SDS011;38405;53.212;5.660;2023-02-28T00:03:32;8.25;;;2.47;;
52494;SDS011;38405;53.212;5.660;2023-02-28T00:06:00;12.63;;;2.72;;
52494;SDS011;38405;53.212;5.660;2023-02-28T00:08:27;11.77;;;2.95;;
52494;SDS011;38405;53.212;5.660;2023-02-28T00:10:53;8.25;;;2.75;;
52494;SDS011;38405;53.212;5.660;2023-02-28T00:13:19;7.65;;;2.50;;
52494;SDS011;38405;53.212;5.660;2023-02-28T00:15:44;9.25;;;2.30;;
52494;SDS011;38405;53.212;5.660;2023-02-28T00:18:11;6.57;;;2.22;;
52494;SDS011;38405;53.212;5.660;2023-02-28T00:20:36;9.38;;;2.35;;
52494;SDS011;38405;53.212;5.660;2023-02-28T00:23:02;10.57;;;1.95;;
52494;SDS011;38405;53.212;5.660;2023-02-28T00:25:31;9.40;;;3.00;;
52494;SDS011;38405;53.212;5.660;2023-02-28T00:27:57;9.63;;;2.05;;
52494;SDS011;38405;53.212;5.660;2023-02-28T00:30:23;7.13;;;2.17;;
52494;SDS011;38405;53.212;5.660;2023-02-28T00:32:49;11.60;;;2.50;;
52494;SDS011;38405;53.212;5.660;2023-02-28T00:35:15;6.03;;;2.38;;
52494;SDS011;38405;53.212;5.660;2023-02-28T00:37:42;12.43;;;2.30;;
52494;SDS011;38405;53.212;5.660;2023-02-28T00:40:08;15.10;;;2.60;;
52494;SDS011;38405;53.212;5.660;2023-02-28T00:42:35;8.40;;;2.05;;
52494;SDS011;38405;53.212;5.660;2023-02-28T00:45:00;9.10;;;2.13;;
52494;SDS011;38405;53.212;5.660;2023-02-28T00:47:28;5.00;;;1.95;;
52494;SDS011;38405;53.212;5.660;2023-02-28T00:49:54;9.65;;;2.50;;
52494;SDS011;38405;53.212;5.660;2023-02-28T00:52:20;8.98;;;2.47;;
52494;SDS011;38405;53.212;5.660;2023-02-28T00:54:46;4.75;;;1.90;;
52494;SDS011;38405;53.212;5.660;2023-02-28T00:57:12;8.65;;;2.10;;
52494;SDS011;38405;53.212;5.660;2023-02-28T00:59:37;5.15;;;2.08;;
52494;SDS011;38405;53.212;5.660;2023-02-28T01:02:03;4.75;;;1.95;;
52494;SDS011;38405;53.212;5.660;2023-02-28T01:04:29;8.13;;;2.30;;
52494;SDS011;38405;53.212;5.660;2023-02-28T01:06:54;10.20;;;2.08;;
52494;SDS011;38405;53.212;5.660;2023-02-28T01:09:20;6.18;;;2.40;;
52494;SDS011;38405;53.212;5.660;2023-02-28T01:11:49;10.00;;;2.25;;
52494;SDS011;38405;53.212;5.660;2023-02-28T01:14:17;5.15;;;2.15;;
52494;SDS011;38405;53.212;5.660;2023-02-28T01:16:43;7.60;;;2.10;;
52494;SDS011;38405;53.212;5.660;2023-02-28T01:19:12;5.47;;;2.20;;
52494;SDS011;38405;53.212;5.660;2023-02-28T01:21:37;5.60;;;2.13;;
52494;SDS011;38405;53.212;5.660;2023-02-28T01:24:03;6.50;;;1.92;;
52494;SDS011;38405;53.212;5.660;2023-02-28T01:26:30;6.80;;;1.77;;
52494;SDS011;38405;53.212;5.660;2023-02-28T01:28:56;7.85;;;2.08;;
52494;SDS011;38405;53.212;5.660;2023-02-28T01:31:22;6.93;;;2.13;;
52494;SDS011;38405;53.212;5.660;2023-02-28T01:33:48;4.30;;;2.03;;
52494;SDS011;38405;53.212;5.660;2023-02-28T01:36:15;10.85;;;2.10;;
52494;SDS011;38405;53.212;5.660;2023-02-28T01:38:43;10.32;;;2.00;;
52494;SDS011;38405;53.212;5.660;2023-02-28T01:41:10;9.65;;;2.60;;
52494;SDS011;38405;53.212;5.660;2023-02-28T01:46:10;5.50;;;1.92;;
52494;SDS011;38405;53.212;5.660;2023-02-28T01:48:38;10.82;;;2.00;;
52494;SDS011;38405;53.212;5.660;2023-02-28T01:51:11;14.07;;;1.90;;
52494;SDS011;38405;53.212;5.660;2023-02-28T01:53:59;4.85;;;2.33;;
52494;SDS011;38405;53.212;5.660;2023-02-28T01:56:29;4.07;;;1.70;;
52494;SDS011;38405;53.212;5.660;2023-02-28T01:59:00;7.95;;;1.95;;
52494;SDS011;38405;53.212;5.660;2023-02-28T02:01:26;7.88;;;2.20;;
52494;SDS011;38405;53.212;5.660;2023-02-28T02:04:01;6.18;;;2.03;;
52494;SDS011;38405;53.212;5.660;2023-02-28T02:06:38;9.13;;;2.00;;
52494;SDS011;38405;53.212;5.660;2023-02-28T02:09:07;6.07;;;2.17;;
52494;SDS011;38405;53.212;5.660;2023-02-28T02:11:33;8.85;;;1.80;;
52494;SDS011;38405;53.212;5.660;2023-02-28T02:25:53;4.32;;;2.00;;
52494;SDS011;38405;53.212;5.660;2023-02-28T02:27:59;6.85;;;1.98;;
52494;SDS011;38405;53.212;5.660;2023-02-28T02:35:45;5.93;;;1.85;;
52494;SDS011;38405;53.212;5.660;2023-02-28T02:46:32;10.27;;;1.88;;
52494;SDS011;38405;53.212;5.660;2023-02-28T02:49:10;3.50;;;1.63;;
52494;SDS011;38405;53.212;5.660;2023-02-28T02:51:40;7.50;;;2.00;;
52494;SDS011;38405;53.212;5.660;2023-02-28T02:59:08;7.30;;;1.80;;
52494;SDS011;38405;53.212;5.660;2023-02-28T03:01:37;5.13;;;1.98;;
52494;SDS011;38405;53.212;5.660;2023-02-28T03:04:08;12.50;;;2.45;;
52494;SDS011;38405;53.212;5.660;2023-02-28T03:06:37;7.53;;;1.80;;
52494;SDS011;38405;53.212;5.660;2023-02-28T03:09:03;5.63;;;2.05;;
52494;SDS011;38405;53.212;5.660;2023-02-28T03:11:29;11.20;;;2.60;;
52494;SDS011;38405;53.212;5.660;2023-02-28T03:16:52;7.20;;;1.85;;
52494;SDS011;38405;53.212;5.660;2023-02-28T03:19:31;4.22;;;1.70;;
52494;SDS011;38405;53.212;5.660;2023-02-28T03:25:32;4.57;;;1.67;;
52494;SDS011;38405;53.212;5.660;2023-02-28T03:28:17;7.75;;;1.58;;
52494;SDS011;38405;53.212;5.660;2023-02-28T03:30:56;6.82;;;1.45;;
52494;SDS011;38405;53.212;5.660;2023-02-28T03:33:24;10.35;;;1.75;;
52494;SDS011;38405;53.212;5.660;2023-02-28T03:38:36;3.90;;;1.50;;
52494;SDS011;38405;53.212;5.660;2023-02-28T03:41:16;7.35;;;1.67;;
52494;SDS011;38405;53.212;5.660;2023-02-28T03:43:55;3.50;;;1.45;;
52494;SDS011;38405;53.212;5.660;2023-02-28T03:46:24;6.55;;;1.25;;
52494;SDS011;38405;53.212;5.660;2023-02-28T03:48:58;5.45;;;1.55;;
52494;SDS011;38405;53.212;5.660;2023-02-28T03:51:30;4.93;;;1.42;;
52494;SDS011;38405;53.212;5.660;2023-02-28T03:53:58;6.00;;;1.40;;
52494;SDS011;38405;53.212;5.660;2023-02-28T03:56:34;1.40;;;1.00;;
52494;SDS011;38405;53.212;5.660;2023-02-28T04:01:44;3.13;;;1.10;;
52494;SDS011;38405;53.212;5.660;2023-02-28T04:04:12;4.75;;;1.08;;
52494;SDS011;38405;53.212;5.660;2023-02-28T04:06:39;5.10;;;1.23;;
52494;SDS011;38405;53.212;5.660;2023-02-28T04:09:05;6.13;;;1.35;;
52494;SDS011;38405;53.212;5.660;2023-02-28T04:11:36;7.22;;;1.27;;
52494;SDS011;38405;53.212;5.660;2023-02-28T04:14:04;5.05;;;1.05;;
52494;SDS011;38405;53.212;5.660;2023-02-28T04:16:32;7.75;;;1.10;;
52494;SDS011;38405;53.212;5.660;2023-02-28T04:18:59;8.00;;;1.08;;
52494;SDS011;38405;53.212;5.660;2023-02-28T04:21:30;6.85;;;1.27;;
52494;SDS011;38405;53.212;5.660;2023-02-28T04:23:57;5.03;;;1.45;;
52494;SDS011;38405;53.212;5.660;2023-02-28T04:26:27;4.57;;;1.10;;
52494;SDS011;38405;53.212;5.660;2023-02-28T04:29:01;5.85;;;1.67;;
52494;SDS011;38405;53.212;5.660;2023-02-28T04:31:28;3.03;;;1.00;;
52494;SDS011;38405;53.212;5.660;2023-02-28T04:33:53;11.68;;;1.42;;
52494;SDS011;38405;53.212;5.660;2023-02-28T04:36:19;8.50;;;1.75;;
52494;SDS011;38405;53.212;5.660;2023-02-28T04:38:45;8.13;;;1.30;;
52494;SDS011;38405;53.212;5.660;2023-02-28T04:41:11;9.82;;;1.65;;
52494;SDS011;38405;53.212;5.660;2023-02-28T04:43:41;8.55;;;1.30;;
52494;SDS011;38405;53.212;5.660;2023-02-28T04:46:06;5.80;;;1.10;;
52494;SDS011;38405;53.212;5.660;2023-02-28T04:48:33;9.80;;;1.67;;
52494;SDS011;38405;53.212;5.660;2023-02-28T04:51:07;5.45;;;1.33;;
52494;SDS011;38405;53.212;5.660;2023-02-28T04:53:35;7.47;;;1.45;;
52494;SDS011;38405;53.212;5.660;2023-02-28T04:56:05;5.13;;;1.85;;
52494;SDS011;38405;53.212;5.660;2023-02-28T04:58:31;7.85;;;1.65;;
52494;SDS011;38405;53.212;5.660;2023-02-28T05:01:04;5.72;;;1.30;;
52494;SDS011;38405;53.212;5.660;2023-02-28T05:03:37;5.20;;;1.65;;
52494;SDS011;38405;53.212;5.660;2023-02-28T05:06:07;7.03;;;1.38;;
52494;SDS011;38405;53.212;5.660;2023-02-28T05:08:33;9.43;;;2.05;;
52494;SDS011;38405;53.212;5.660;2023-02-28T05:11:01;10.13;;;1.50;;
52494;SDS011;38405;53.212;5.660;2023-02-28T05:13:27;6.53;;;1.33;;
52494;SDS011;38405;53.212;5.660;2023-02-28T05:16:00;9.25;;;1.50;;
52494;SDS011;38405;53.212;5.660;2023-02-28T05:18:26;4.38;;;1.10;;
52494;SDS011;38405;53.212;5.660;2023-02-28T05:20:51;7.07;;;1.23;;
52494;SDS011;38405;53.212;5.660;2023-02-28T05:23:17;4.70;;;1.10;;
52494;SDS011;38405;53.212;5.660;2023-02-28T05:25:46;9.00;;;1.13;;
52494;SDS011;38405;53.212;5.660;2023-02-28T05:28:11;4.82;;;1.00;;
52494;SDS011;38405;53.212;5.660;2023-02-28T05:30:37;5.53;;;1.20;;
52494;SDS011;38405;53.212;5.660;2023-02-28T05:33:03;5.82;;;1.23;;
52494;SDS011;38405;53.212;5.660;2023-02-28T05:35:28;7.60;;;1.20;;
52494;SDS011;38405;53.212;5.660;2023-02-28T05:37:54;4.78;;;1.48;;
52494;SDS011;38405;53.212;5.660;2023-02-28T05:40:19;7.15;;;1.30;;
52494;SDS011;38405;53.212;5.660;2023-02-28T05:42:45;7.90;;;1.63;;
52494;SDS011;38405;53.212;5.660;2023-02-28T05:45:11;4.15;;;1.20;;
52494;SDS011;38405;53.212;5.660;2023-02-28T05:47:38;11.10;;;1.13;;
52494;SDS011;38405;53.212;5.660;2023-02-28T05:50:04;12.75;;;1.38;;
52494;SDS011;38405;53.212;5.660;2023-02-28T05:52:30;6.20;;;1.50;;
52494;SDS011;38405;53.212;5.660;2023-02-28T05:54:56;5.15;;;1.10;;
52494;SDS011;38405;53.212;5.660;2023-02-28T05:57:22;5.70;;;1.30;;
52494;SDS011;38405;53.212;5.660;2023-02-28T05:59:48;9.73;;;1.77;;
52494;SDS011;38405;53.212;5.660;2023-02-28T06:02:15;11.50;;;1.88;;
52494;SDS011;38405;53.212;5.660;2023-02-28T06:04:42;6.72;;;1.80;;
52494;SDS011;38405;53.212;5.660;2023-02-28T06:07:09;6.53;;;1.48;;
52494;SDS011;38405;53.212;5.660;2023-02-28T06:09:35;5.15;;;1.25;;
52494;SDS011;38405;53.212;5.660;2023-02-28T06:12:02;5.47;;;1.30;;
52494;SDS011;38405;53.212;5.660;2023-02-28T06:14:30;3.15;;;1.30;;
52494;SDS011;38405;53.212;5.660;2023-02-28T06:16:56;6.30;;;1.83;;
52494;SDS011;38405;53.212;5.660;2023-02-28T06:19:23;8.85;;;2.00;;
52494;SDS011;38405;53.212;5.660;2023-02-28T06:21:50;7.13;;;1.15;;
52494;SDS011;38405;53.212;5.660;2023-02-28T06:24:18;6.50;;;1.83;;
52494;SDS011;38405;53.212;5.660;2023-02-28T06:26:44;11.30;;;1.67;;
52494;SDS011;38405;53.212;5.660;2023-02-28T06:29:13;8.23;;;2.03;;
52494;SDS011;38405;53.212;5.660;2023-02-28T06:31:46;4.68;;;1.58;;
52494;SDS011;38405;53.212;5.660;2023-02-28T06:34:12;5.50;;;1.90;;
52494;SDS011;38405;53.212;5.660;2023-02-28T06:36:38;5.25;;;1.50;;
52494;SDS011;38405;53.212;5.660;2023-02-28T06:39:05;11.45;;;1.88;;
52494;SDS011;38405;53.212;5.660;2023-02-28T06:41:33;7.53;;;2.13;;
52494;SDS011;38405;53.212;5.660;2023-02-28T06:44:03;5.60;;;1.85;;
52494;SDS011;38405;53.212;5.660;2023-02-28T06:46:30;10.52;;;2.45;;
52494;SDS011;38405;53.212;5.660;2023-02-28T06:48:56;8.48;;;2.13;;
52494;SDS011;38405;53.212;5.660;2023-02-28T06:51:22;8.93;;;1.83;;
52494;SDS011;38405;53.212;5.660;2023-02-28T06:53:49;4.97;;;3.30;;
52494;SDS011;38405;53.212;5.660;2023-02-28T06:56:18;5.47;;;4.20;;
52494;SDS011;38405;53.212;5.660;2023-02-28T06:58:47;6.85;;;4.47;;
52494;SDS011;38405;53.212;5.660;2023-02-28T07:01:14;6.28;;;4.40;;
52494;SDS011;38405;53.212;5.660;2023-02-28T07:03:39;5.50;;;4.75;;
52494;SDS011;38405;53.212;5.660;2023-02-28T07:06:05;5.65;;;4.75;;
52494;SDS011;38405;53.212;5.660;2023-02-28T07:08:31;5.90;;;4.68;;
52494;SDS011;38405;53.212;5.660;2023-02-28T07:10:57;5.63;;;5.03;;
52494;SDS011;38405;53.212;5.660;2023-02-28T07:13:23;7.07;;;5.50;;
52494;SDS011;38405;53.212;5.660;2023-02-28T07:15:59;8.43;;;6.03;;
52494;SDS011;38405;53.212;5.660;2023-02-28T07:18:30;8.48;;;6.07;;
52494;SDS011;38405;53.212;5.660;2023-02-28T07:20:56;8.77;;;6.30;;
52494;SDS011;38405;53.212;5.660;2023-02-28T07:23:22;8.75;;;6.70;;
52494;SDS011;38405;53.212;5.660;2023-02-28T07:25:49;8.00;;;6.15;;
52494;SDS011;38405;53.212;5.660;2023-02-28T07:28:15;9.30;;;6.38;;
52494;SDS011;38405;53.212;5.660;2023-02-28T07:30:41;7.72;;;6.43;;
52494;SDS011;38405;53.212;5.660;2023-02-28T07:33:07;9.18;;;6.38;;
52494;SDS011;38405;53.212;5.660;2023-02-28T07:35:33;7.07;;;5.72;;
52494;SDS011;38405;53.212;5.660;2023-02-28T07:37:59;8.18;;;6.38;;
52494;SDS011;38405;53.212;5.660;2023-02-28T07:40:28;7.60;;;6.25;;
52494;SDS011;38405;53.212;5.660;2023-02-28T07:42:55;9.55;;;6.80;;
52494;SDS011;38405;53.212;5.660;2023-02-28T07:45:21;9.10;;;7.13;;
52494;SDS011;38405;53.212;5.660;2023-02-28T07:47:47;7.65;;;6.35;;
52494;SDS011;38405;53.212;5.660;2023-02-28T07:50:13;9.00;;;6.63;;
52494;SDS011;38405;53.212;5.660;2023-02-28T07:52:40;8.65;;;7.07;;
52494;SDS011;38405;53.212;5.660;2023-02-28T07:55:06;8.68;;;7.35;;
52494;SDS011;38405;53.212;5.660;2023-02-28T07:57:33;10.55;;;6.97;;
52494;SDS011;38405;53.212;5.660;2023-02-28T07:59:59;9.27;;;7.38;;
52494;SDS011;38405;53.212;5.660;2023-02-28T08:02:25;9.73;;;8.15;;
52494;SDS011;38405;53.212;5.660;2023-02-28T08:04:50;8.57;;;7.47;;
52494;SDS011;38405;53.212;5.660;2023-02-28T08:07:19;11.50;;;8.52;;
52494;SDS011;38405;53.212;5.660;2023-02-28T08:09:44;10.05;;;7.82;;
52494;SDS011;38405;53.212;5.660;2023-02-28T08:12:11;10.60;;;8.50;;
52494;SDS011;38405;53.212;5.660;2023-02-28T08:14:37;10.68;;;8.20;;
52494;SDS011;38405;53.212;5.660;2023-02-28T08:17:03;11.27;;;8.15;;
52494;SDS011;38405;53.212;5.660;2023-02-28T08:19:29;10.70;;;8.48;;
52494;SDS011;38405;53.212;5.660;2023-02-28T08:22:01;10.88;;;8.77;;
52494;SDS011;38405;53.212;5.660;2023-02-28T08:24:27;10.35;;;8.30;;
52494;SDS011;38405;53.212;5.660;2023-02-28T08:26:53;11.68;;;8.52;;
52494;SDS011;38405;53.212;5.660;2023-02-28T08:29:19;13.38;;;8.75;;
52494;SDS011;38405;53.212;5.660;2023-02-28T08:31:45;10.65;;;8.20;;
52494;SDS011;38405;53.212;5.660;2023-02-28T08:34:11;11.70;;;8.88;;
52494;SDS011;38405;53.212;5.660;2023-02-28T08:36:59;12.40;;;8.73;;
52494;SDS011;38405;53.212;5.660;2023-02-28T08:39:25;13.60;;;9.05;;
52494;SDS011;38405;53.212;5.660;2023-02-28T08:41:51;11.10;;;8.88;;
52494;SDS011;38405;53.212;5.660;2023-02-28T08:44:16;13.15;;;8.90;;
52494;SDS011;38405;53.212;5.660;2023-02-28T08:46:42;9.23;;;8.00;;
52494;SDS011;38405;53.212;5.660;2023-02-28T08:49:09;10.13;;;8.48;;
52494;SDS011;38405;53.212;5.660;2023-02-28T08:51:36;12.70;;;8.48;;
52494;SDS011;38405;53.212;5.660;2023-02-28T08:54:01;12.18;;;8.93;;
52494;SDS011;38405;53.212;5.660;2023-02-28T08:56:27;11.57;;;8.85;;
52494;SDS011;38405;53.212;5.660;2023-02-28T08:58:54;14.95;;;8.95;;
52494;SDS011;38405;53.212;5.660;2023-02-28T09:01:25;12.63;;;9.10;;
52494;SDS011;38405;53.212;5.660;2023-02-28T09:03:52;13.10;;;9.43;;
52494;SDS011;38405;53.212;5.660;2023-02-28T09:06:19;14.27;;;10.00;;
52494;SDS011;38405;53.212;5.660;2023-02-28T09:08:47;12.60;;;10.10;;
52494;SDS011;38405;53.212;5.660;2023-02-28T09:11:13;12.23;;;9.65;;
52494;SDS011;38405;53.212;5.660;2023-02-28T09:13:39;13.93;;;10.60;;
52494;SDS011;38405;53.212;5.660;2023-02-28T09:16:06;15.60;;;10.27;;
52494;SDS011;38405;53.212;5.660;2023-02-28T09:18:36;16.13;;;10.98;;
52494;SDS011;38405;53.212;5.660;2023-02-28T09:21:03;14.70;;;10.52;;
52494;SDS011;38405;53.212;5.660;2023-02-28T09:23:30;13.43;;;10.07;;
52494;SDS011;38405;53.212;5.660;2023-02-28T09:25:56;14.50;;;10.38;;
52494;SDS011;38405;53.212;5.660;2023-02-28T09:28:21;14.18;;;10.15;;
52494;SDS011;38405;53.212;5.660;2023-02-28T09:30:48;13.57;;;10.38;;
52494;SDS011;38405;53.212;5.660;2023-02-28T09:33:16;13.07;;;9.55;;
52494;SDS011;38405;53.212;5.660;2023-02-28T09:35:42;12.18;;;9.25;;
52494;SDS011;38405;53.212;5.660;2023-02-28T09:38:08;10.88;;;9.10;;
52494;SDS011;38405;53.212;5.660;2023-02-28T09:40:36;11.02;;;8.93;;
52494;SDS011;38405;53.212;5.660;2023-02-28T09:43:04;9.68;;;8.45;;
52494;SDS011;38405;53.212;5.660;2023-02-28T09:45:33;13.20;;;9.55;;
52494;SDS011;38405;53.212;5.660;2023-02-28T09:48:03;11.90;;;9.48;;
52494;SDS011;38405;53.212;5.660;2023-02-28T09:50:38;10.85;;;9.10;;
52494;SDS011;38405;53.212;5.660;2023-02-28T09:53:25;11.40;;;7.90;;
52494;SDS011;38405;53.212;5.660;2023-02-28T09:56:14;9.52;;;7.93;;
52494;SDS011;38405;53.212;5.660;2023-02-28T10:02:15;9.60;;;8.05;;
52494;SDS011;38405;53.212;5.660;2023-02-28T10:04:56;10.13;;;7.95;;
52494;SDS011;38405;53.212;5.660;2023-02-28T10:07:39;9.48;;;7.60;;
52494;SDS011;38405;53.212;5.660;2023-02-28T10:13:02;9.73;;;8.13;;
52494;SDS011;38405;53.212;5.660;2023-02-28T10:15:37;9.52;;;7.70;;
52494;SDS011;38405;53.212;5.660;2023-02-28T10:18:04;8.35;;;7.20;;
52494;SDS011;38405;53.212;5.660;2023-02-28T10:20:37;8.77;;;7.80;;
52494;SDS011;38405;53.212;5.660;2023-02-28T10:25:44;8.18;;;7.10;;
52494;SDS011;38405;53.212;5.660;2023-02-28T10:28:25;9.27;;;7.40;;
52494;SDS011;38405;53.212;5.660;2023-02-28T10:30:53;9.40;;;7.28;;
52494;SDS011;38405;53.212;5.660;2023-02-28T10:33:25;10.20;;;7.13;;
52494;SDS011;38405;53.212;5.660;2023-02-28T10:35:55;10.57;;;7.32;;
52494;SDS011;38405;53.212;5.660;2023-02-28T10:38:25;8.77;;;6.95;;
52494;SDS011;38405;53.212;5.660;2023-02-28T10:41:06;9.60;;;6.82;;
52494;SDS011;38405;53.212;5.660;2023-02-28T10:43:33;8.30;;;7.07;;
52494;SDS011;38405;53.212;5.660;2023-02-28T10:46:11;9.52;;;7.18;;
52494;SDS011;38405;53.212;5.660;2023-02-28T10:49:06;10.82;;;6.95;;
52494;SDS011;38405;53.212;5.660;2023-02-28T10:51:42;8.85;;;6.22;;
52494;SDS011;38405;53.212;5.660;2023-02-28T10:54:15;9.25;;;5.63;;
52494;SDS011;38405;53.212;5.660;2023-02-28T10:57:23;9.73;;;6.07;;
52494;SDS011;38405;53.212;5.660;2023-02-28T10:59:44;8.38;;;6.07;;
52494;SDS011;38405;53.212;5.660;2023-02-28T11:04:56;7.55;;;5.78;;
52494;SDS011;38405;53.212;5.660;2023-02-28T11:07:23;7.72;;;5.88;;
52494;SDS011;38405;53.212;5.660;2023-02-28T11:09:59;7.00;;;5.72;;
52494;SDS011;38405;53.212;5.660;2023-02-28T11:12:29;6.13;;;4.88;;
52494;SDS011;38405;53.212;5.660;2023-02-28T11:15:02;8.15;;;4.82;;
52494;SDS011;38405;53.212;5.660;2023-02-28T11:17:31;15.50;;;4.93;;
52494;SDS011;38405;53.212;5.660;2023-02-28T11:19:58;6.10;;;4.32;;
52494;SDS011;38405;53.212;5.660;2023-02-28T11:22:29;5.72;;;4.00;;
52494;SDS011;38405;53.212;5.660;2023-02-28T11:25:07;5.82;;;4.60;;
52494;SDS011;38405;53.212;5.660;2023-02-28T11:27:49;6.30;;;4.60;;
52494;SDS011;38405;53.212;5.660;2023-02-28T11:30:26;5.72;;;4.13;;
52494;SDS011;38405;53.212;5.660;2023-02-28T11:32:51;5.65;;;4.03;;
52494;SDS011;38405;53.212;5.660;2023-02-28T11:35:19;5.97;;;3.70;;
52494;SDS011;38405;53.212;5.660;2023-02-28T11:37:52;6.00;;;3.72;;
52494;SDS011;38405;53.212;5.660;2023-02-28T11:40:18;6.95;;;4.03;;
52494;SDS011;38405;53.212;5.660;2023-02-28T11:51:28;3.95;;;3.55;;
52494;SDS011;38405;53.212;5.660;2023-02-28T11:56:48;5.10;;;4.00;;
52494;SDS011;38405;53.212;5.660;2023-02-28T12:13:34;3.92;;;3.53;;
52494;SDS011;38405;53.212;5.660;2023-02-28T12:19:20;4.93;;;3.50;;
52494;SDS011;38405;53.212;5.660;2023-02-28T12:22:10;4.72;;;3.38;;
52494;SDS011;38405;53.212;5.660;2023-02-28T12:27:31;4.60;;;3.80;;
52494;SDS011;38405;53.212;5.660;2023-02-28T12:32:58;4.70;;;3.30;;
52494;SDS011;38405;53.212;5.660;2023-02-28T12:38:27;4.50;;;3.78;;
52494;SDS011;38405;53.212;5.660;2023-02-28T12:40:59;4.47;;;3.67;;
52494;SDS011;38405;53.212;5.660;2023-02-28T12:43:30;4.88;;;3.63;;
52494;SDS011;38405;53.212;5.660;2023-02-28T12:46:07;4.68;;;3.50;;
52494;SDS011;38405;53.212;5.660;2023-02-28T12:48:58;6.38;;;3.95;;
52494;SDS011;38405;53.212;5.660;2023-02-28T12:51:29;4.68;;;3.65;;
52494;SDS011;38405;53.212;5.660;2023-02-28T12:54:03;3.90;;;3.50;;
52494;SDS011;38405;53.212;5.660;2023-02-28T12:56:33;5.80;;;3.70;;
52494;SDS011;38405;53.212;5.660;2023-02-28T12:59:25;5.75;;;3.70;;
52494;SDS011;38405;53.212;5.660;2023-02-28T13:10:37;4.50;;;3.25;;
52494;SDS011;38405;53.212;5.660;2023-02-28T13:13:05;3.70;;;3.13;;
52494;SDS011;38405;53.212;5.660;2023-02-28T13:15:31;4.13;;;3.58;;
52494;SDS011;38405;53.212;5.660;2023-02-28T13:18:00;7.35;;;4.22;;
52494;SDS011;38405;53.212;5.660;2023-02-28T13:20:47;4.65;;;3.63;;
52494;SDS011;38405;53.212;5.660;2023-02-28T13:24:02;4.00;;;3.58;;
52494;SDS011;38405;53.212;5.660;2023-02-28T13:26:17;5.40;;;3.53;;
52494;SDS011;38405;53.212;5.660;2023-02-28T13:31:20;4.95;;;3.40;;
52494;SDS011;38405;53.212;5.660;2023-02-28T13:38:46;6.53;;;3.80;;
52494;SDS011;38405;53.212;5.660;2023-02-28T13:44:39;4.00;;;3.33;;
52494;SDS011;38405;53.212;5.660;2023-02-28T14:01:02;4.13;;;3.50;;
52494;SDS011;38405;53.212;5.660;2023-02-28T14:06:32;4.13;;;3.40;;
52494;SDS011;38405;53.212;5.660;2023-02-28T14:09:16;4.07;;;3.45;;
52494;SDS011;38405;53.212;5.660;2023-02-28T14:11:44;3.95;;;3.53;;
52494;SDS011;38405;53.212;5.660;2023-02-28T14:17:02;4.03;;;3.55;;
52494;SDS011;38405;53.212;5.660;2023-02-28T14:19:30;3.85;;;3.55;;
52494;SDS011;38405;53.212;5.660;2023-02-28T14:27:45;5.95;;;4.13;;
52494;SDS011;38405;53.212;5.660;2023-02-28T14:38:32;5.10;;;3.67;;
52494;SDS011;38405;53.212;5.660;2023-02-28T14:41:04;5.68;;;3.83;;
52494;SDS011;38405;53.212;5.660;2023-02-28T14:43:42;6.20;;;4.30;;
52494;SDS011;38405;53.212;5.660;2023-02-28T14:46:14;7.30;;;4.15;;
52494;SDS011;38405;53.212;5.660;2023-02-28T14:48:44;6.93;;;4.72;;
52494;SDS011;38405;53.212;5.660;2023-02-28T14:51:18;5.43;;;4.07;;
52494;SDS011;38405;53.212;5.660;2023-02-28T14:53:52;6.18;;;4.10;;
52494;SDS011;38405;53.212;5.660;2023-02-28T14:56:23;6.18;;;4.18;;
52494;SDS011;38405;53.212;5.660;2023-02-28T14:58:59;4.45;;;3.78;;
52494;SDS011;38405;53.212;5.660;2023-02-28T15:01:25;8.02;;;4.30;;
52494;SDS011;38405;53.212;5.660;2023-02-28T15:03:58;6.20;;;3.90;;
52494;SDS011;38405;53.212;5.660;2023-02-28T15:06:27;4.18;;;3.78;;
52494;SDS011;38405;53.212;5.660;2023-02-28T15:09:10;4.38;;;3.78;;
52494;SDS011;38405;53.212;5.660;2023-02-28T15:11:41;6.10;;;3.95;;
52494;SDS011;38405;53.212;5.660;2023-02-28T15:14:13;4.45;;;4.03;;
52494;SDS011;38405;53.212;5.660;2023-02-28T15:16:43;6.00;;;4.22;;
52494;SDS011;38405;53.212;5.660;2023-02-28T15:19:19;5.90;;;4.32;;
52494;SDS011;38405;53.212;5.660;2023-02-28T15:22:02;4.85;;;3.70;;
52494;SDS011;38405;53.212;5.660;2023-02-28T15:27:33;4.68;;;4.00;;
52494;SDS011;38405;53.212;5.660;2023-02-28T15:30:07;5.78;;;4.35;;
52494;SDS011;38405;53.212;5.660;2023-02-28T15:32:39;5.30;;;4.20;;
52494;SDS011;38405;53.212;5.660;2023-02-28T15:37:54;7.53;;;4.18;;
52494;SDS011;38405;53.212;5.660;2023-02-28T15:40:42;5.75;;;4.60;;
52494;SDS011;38405;53.212;5.660;2023-02-28T15:43:37;8.15;;;5.05;;
52494;SDS011;38405;53.212;5.660;2023-02-28T15:46:06;5.13;;;4.35;;
52494;SDS011;38405;53.212;5.660;2023-02-28T15:48:53;5.00;;;4.50;;
52494;SDS011;38405;53.212;5.660;2023-02-28T15:54:02;5.78;;;4.18;;
52494;SDS011;38405;53.212;5.660;2023-02-28T15:56:33;6.40;;;4.28;;
52494;SDS011;38405;53.212;5.660;2023-02-28T15:59:20;6.15;;;4.60;;
52494;SDS011;38405;53.212;5.660;2023-02-28T16:04:27;6.72;;;4.85;;
52494;SDS011;38405;53.212;5.660;2023-02-28T16:09:24;7.10;;;5.13;;
52494;SDS011;38405;53.212;5.660;2023-02-28T16:11:52;5.43;;;4.38;;
52494;SDS011;38405;53.212;5.660;2023-02-28T16:14:22;6.80;;;5.47;;
52494;SDS011;38405;53.212;5.660;2023-02-28T16:17:04;5.50;;;4.85;;
52494;SDS011;38405;53.212;5.660;2023-02-28T16:19:33;6.55;;;4.75;;
52494;SDS011;38405;53.212;5.660;2023-02-28T16:21:59;7.57;;;4.90;;
52494;SDS011;38405;53.212;5.660;2023-02-28T16:24:26;5.85;;;4.93;;
52494;SDS011;38405;53.212;5.660;2023-02-28T16:26:52;7.57;;;4.82;;
52494;SDS011;38405;53.212;5.660;2023-02-28T16:29:23;6.15;;;5.10;;
52494;SDS011;38405;53.212;5.660;2023-02-28T16:31:54;8.40;;;4.90;;
52494;SDS011;38405;53.212;5.660;2023-02-28T16:34:23;6.38;;;4.80;;
52494;SDS011;38405;53.212;5.660;2023-02-28T16:36:49;6.90;;;5.15;;
52494;SDS011;38405;53.212;5.660;2023-02-28T16:39:15;7.00;;;5.07;;
52494;SDS011;38405;53.212;5.660;2023-02-28T16:41:45;7.35;;;5.50;;
52494;SDS011;38405;53.212;5.660;2023-02-28T16:47:01;7.43;;;5.63;;
52494;SDS011;38405;53.212;5.660;2023-02-28T16:49:27;9.60;;;5.55;;
52494;SDS011;38405;53.212;5.660;2023-02-28T16:51:53;9.25;;;6.00;;
52494;SDS011;38405;53.212;5.660;2023-02-28T16:54:19;9.07;;;6.25;;
52494;SDS011;38405;53.212;5.660;2023-02-28T16:56:45;5.57;;;5.07;;
52494;SDS011;38405;53.212;5.660;2023-02-28T16:59:12;7.00;;;5.63;;
52494;SDS011;38405;53.212;5.660;2023-02-28T17:01:39;9.45;;;5.40;;
52494;SDS011;38405;53.212;5.660;2023-02-28T17:04:08;6.90;;;5.30;;
52494;SDS011;38405;53.212;5.660;2023-02-28T17:06:37;7.82;;;6.38;;
52494;SDS011;38405;53.212;5.660;2023-02-28T17:09:05;8.35;;;5.88;;
52494;SDS011;38405;53.212;5.660;2023-02-28T17:11:33;9.25;;;5.97;;
52494;SDS011;38405;53.212;5.660;2023-02-28T17:13:59;6.95;;;5.70;;
52494;SDS011;38405;53.212;5.660;2023-02-28T17:16:32;7.90;;;6.03;;
52494;SDS011;38405;53.212;5.660;2023-02-28T17:19:00;9.02;;;6.07;;
52494;SDS011;38405;53.212;5.660;2023-02-28T17:21:30;11.40;;;6.20;;
52494;SDS011;38405;53.212;5.660;2023-02-28T17:23:59;9.35;;;6.25;;
52494;SDS011;38405;53.212;5.660;2023-02-28T17:26:25;9.77;;;6.32;;
52494;SDS011;38405;53.212;5.660;2023-02-28T17:28:53;9.00;;;6.68;;
52494;SDS011;38405;53.212;5.660;2023-02-28T17:31:21;8.68;;;6.68;;
52494;SDS011;38405;53.212;5.660;2023-02-28T17:33:47;8.68;;;6.43;;
52494;SDS011;38405;53.212;5.660;2023-02-28T17:36:18;10.63;;;7.30;;
52494;SDS011;38405;53.212;5.660;2023-02-28T17:38:58;18.23;;;8.95;;
52494;SDS011;38405;53.212;5.660;2023-02-28T17:41:24;14.00;;;9.75;;
52494;SDS011;38405;53.212;5.660;2023-02-28T17:43:51;15.18;;;9.68;;